Time;durP1;ratioP1;P1;durP2;ratioP2;P2;SDS_P1;SDS_P2;PMS_P1;PMS_P2;Temp;Humidity;BMP_temperature;BMP_pressure;BME280_temperature;BME280_humidity;BME280_pressure;Samples;Min_cycle;Max_cycle;Signal;HPM_P1;HPM_P2
2022/03/25 00:00:28;;;;;;;21.83;14.10;;;;;;;;;;5095433;28;20170;-75
2022/03/25 00:02:54;;;;;;;23.70;15.10;;;;;;;;;;5077133;28;20212;-75
2022/03/25 00:05:20;;;;;;;22.03;15.10;;;;;;;;;;5077481;28;20231;-75
2022/03/25 00:07:46;;;;;;;23.17;14.67;;;;;;;;;;5077159;28;20556;-75
2022/03/25 00:10:12;;;;;;;22.37;14.80;;;;;;;;;;5060844;28;20221;-75
2022/03/25 00:12:39;;;;;;;22.10;14.83;;;;;;;;;;5060697;28;20181;-75
2022/03/25 00:15:06;;;;;;;22.93;13.87;;;;;;;;;;5077024;28;20173;-75
2022/03/25 00:17:32;;;;;;;23.27;14.97;;;;;;;;;;5077271;28;20180;-75
2022/03/25 00:19:59;;;;;;;22.80;15.40;;;;;;;;;;5077168;28;20196;-75
2022/03/25 00:22:25;;;;;;;26.97;15.20;;;;;;;;;;5060459;28;20188;-75
2022/03/25 00:24:51;;;;;;;24.63;15.20;;;;;;;;;;5060608;28;20184;-75
2022/03/25 00:27:17;;;;;;;23.60;15.13;;;;;;;;;;5077250;28;20168;-75
2022/03/25 00:29:44;;;;;;;22.47;14.43;;;;;;;;;;5076701;28;20216;-75
2022/03/25 00:32:10;;;;;;;24.40;15.07;;;;;;;;;;5076558;28;20249;-75
2022/03/25 00:34:36;;;;;;;23.13;14.87;;;;;;;;;;5077082;28;20183;-75
2022/03/25 00:37:02;;;;;;;23.07;15.13;;;;;;;;;;5060350;28;20180;-75
2022/03/25 00:39:28;;;;;;;22.90;15.43;;;;;;;;;;5076449;28;20204;-75
2022/03/25 00:41:54;;;;;;;26.73;15.37;;;;;;;;;;5076666;28;20173;-75
2022/03/25 00:44:20;;;;;;;25.87;15.17;;;;;;;;;;5076224;28;20176;-75
2022/03/25 00:46:46;;;;;;;24.13;16.00;;;;;;;;;;5076331;28;20267;-75
2022/03/25 00:49:12;;;;;;;20.80;14.07;;;;;;;;;;5076716;28;20215;-75
2022/03/25 00:51:39;;;;;;;25.83;14.80;;;;;;;;;;5076086;28;20180;-75
2022/03/25 00:54:05;;;;;;;22.93;14.70;;;;;;;;;;5076591;28;20209;-75
2022/03/25 00:56:31;;;;;;;21.83;14.03;;;;;;;;;;5059749;28;20180;-75
2022/03/25 00:58:57;;;;;;;23.70;14.80;;;;;;;;;;5076268;28;20248;-75
2022/03/25 01:01:23;;;;;;;23.37;14.40;;;;;;;;;;5075862;28;20207;-75
2022/03/25 01:03:49;;;;;;;28.40;16.23;;;;;;;;;;5076473;28;20180;-75
2022/03/25 01:06:17;;;;;;;25.57;15.83;;;;;;;;;;5059555;28;20179;-75
2022/03/25 01:08:43;;;;;;;24.47;15.47;;;;;;;;;;5060074;28;20206;-75
2022/03/25 01:11:10;;;;;;;23.23;15.13;;;;;;;;;;5059800;28;20180;-75
2022/03/25 01:13:36;;;;;;;24.23;15.93;;;;;;;;;;5076184;28;20176;-75
2022/03/25 01:16:03;;;;;;;23.90;15.37;;;;;;;;;;5076128;28;20183;-75
2022/03/25 01:18:29;;;;;;;21.63;14.70;;;;;;;;;;5075673;28;20212;-75
2022/03/25 01:20:56;;;;;;;22.30;14.67;;;;;;;;;;5093940;28;20174;-75
2022/03/25 01:23:22;;;;;;;22.63;14.47;;;;;;;;;;5076011;28;20177;-75
2022/03/25 01:25:49;;;;;;;19.70;13.90;;;;;;;;;;5075669;28;20174;-75
2022/03/25 01:28:15;;;;;;;22.23;14.33;;;;;;;;;;5075844;28;20217;-75
2022/03/25 01:30:41;;;;;;;20.60;14.30;;;;;;;;;;5075963;28;20174;-75
2022/03/25 01:33:08;;;;;;;22.10;13.97;;;;;;;;;;5059013;28;20187;-75
2022/03/25 01:35:34;;;;;;;22.93;15.00;;;;;;;;;;5059015;28;20188;-75
2022/03/25 01:38:01;;;;;;;22.57;14.40;;;;;;;;;;5093468;28;20209;-75
2022/03/25 01:40:27;;;;;;;23.47;15.20;;;;;;;;;;5075497;28;20185;-75
2022/03/25 01:42:53;;;;;;;22.83;15.23;;;;;;;;;;5058571;28;20184;-75
2022/03/25 01:45:29;;;;;;;22.07;14.60;;;;;;;;;;5075886;28;20169;-75
2022/03/25 01:47:55;;;;;;;22.20;14.40;;;;;;;;;;5075486;28;20168;-75
2022/03/25 01:50:21;;;;;;;23.53;14.40;;;;;;;;;;5058874;28;20228;-75
2022/03/25 01:52:51;;;;;;;24.83;15.10;;;;;;;;;;5075311;28;20187;-75
2022/03/25 01:55:20;;;;;;;24.60;14.63;;;;;;;;;;5074848;28;20176;-75
2022/03/25 01:57:46;;;;;;;24.40;16.00;;;;;;;;;;5093120;28;20206;-75
2022/03/25 02:00:14;;;;;;;25.10;15.57;;;;;;;;;;5058955;28;20183;-75
2022/03/25 02:02:40;;;;;;;27.60;16.70;;;;;;;;;;5075164;28;20318;-75
2022/03/25 02:05:06;;;;;;;21.47;14.73;;;;;;;;;;5058543;28;20176;-75
2022/03/25 02:07:32;;;;;;;24.70;15.60;;;;;;;;;;5093090;28;20263;-75
2022/03/25 02:09:59;;;;;;;25.57;14.90;;;;;;;;;;5075057;28;20193;-75
2022/03/25 02:12:26;;;;;;;25.93;16.67;;;;;;;;;;5075209;28;20168;-75
2022/03/25 02:14:52;;;;;;;23.23;15.37;;;;;;;;;;5075030;28;20172;-75
2022/03/25 02:17:18;;;;;;;24.10;15.67;;;;;;;;;;5075107;28;20180;-75
2022/03/25 02:19:44;;;;;;;23.87;15.10;;;;;;;;;;5074954;28;20212;-75
2022/03/25 02:22:10;;;;;;;23.23;15.53;;;;;;;;;;5074919;28;20179;-75
2022/03/25 02:24:36;;;;;;;27.70;16.20;;;;;;;;;;5058079;28;20573;-75
2022/03/25 02:27:03;;;;;;;24.70;15.30;;;;;;;;;;5058158;28;20603;-75
2022/03/25 02:29:29;;;;;;;28.20;16.93;;;;;;;;;;5109481;22;20304;-72
2022/03/25 02:31:55;;;;;;;24.83;16.43;;;;;;;;;;5094979;28;20766;-72
2022/03/25 02:34:21;;;;;;;25.20;16.13;;;;;;;;;;5094863;28;20187;-75
2022/03/25 02:36:47;;;;;;;25.33;15.87;;;;;;;;;;5113160;28;20185;-75
2022/03/25 02:39:14;;;;;;;28.37;16.30;;;;;;;;;;5094630;28;20215;-75
2022/03/25 02:41:41;;;;;;;26.37;16.33;;;;;;;;;;5094993;28;20550;-75
2022/03/25 02:44:08;;;;;;;24.17;15.70;;;;;;;;;;5113051;28;20174;-75
2022/03/25 02:46:34;;;;;;;25.57;16.33;;;;;;;;;;5094826;28;20676;-75
2022/03/25 02:49:01;;;;;;;25.67;15.67;;;;;;;;;;5077895;28;20205;-75
2022/03/25 02:51:27;;;;;;;26.33;16.67;;;;;;;;;;5112951;28;20178;-75
2022/03/25 02:53:53;;;;;;;25.23;16.30;;;;;;;;;;5095042;28;20741;-75
2022/03/25 02:56:19;;;;;;;28.33;16.80;;;;;;;;;;5077915;28;20206;-75
2022/03/25 02:58:45;;;;;;;28.60;16.90;;;;;;;;;;5112766;28;20199;-75
2022/03/25 03:01:15;;;;;;;25.23;16.30;;;;;;;;;;5078270;28;20252;-75
2022/03/25 03:03:41;;;;;;;26.80;15.73;;;;;;;;;;5078507;28;20181;-75
2022/03/25 03:06:07;;;;;;;27.80;17.10;;;;;;;;;;5095744;28;20167;-75
2022/03/25 03:08:35;;;;;;;26.63;16.73;;;;;;;;;;5098848;28;20625;-75
2022/03/25 03:11:01;;;;;;;29.97;16.60;;;;;;;;;;5116774;28;20182;-75
2022/03/25 03:13:27;;;;;;;26.23;16.37;;;;;;;;;;5098732;28;20180;-75
2022/03/25 03:15:53;;;;;;;24.30;15.67;;;;;;;;;;5098497;28;20180;-75
2022/03/25 03:18:20;;;;;;;27.70;16.30;;;;;;;;;;5081554;28;20214;-75
2022/03/25 03:20:46;;;;;;;25.67;15.93;;;;;;;;;;5116744;28;20713;-75
2022/03/25 03:26:16;;;;;;;27.10;16.87;;;;;;;;;;5116572;28;20225;-75
2022/03/25 03:28:42;;;;;;;26.60;16.80;;;;;;;;;;5081433;28;20213;-75
2022/03/25 03:31:09;;;;;;;23.40;15.00;;;;;;;;;;5081758;28;20186;-75
2022/03/25 03:33:35;;;;;;;23.90;15.77;;;;;;;;;;5098327;28;20236;-75
2022/03/25 03:36:01;;;;;;;22.77;14.50;;;;;;;;;;5116401;28;20262;-75
2022/03/25 03:38:27;;;;;;;27.03;15.97;;;;;;;;;;5081141;28;20213;-75
2022/03/25 03:40:53;;;;;;;24.50;15.83;;;;;;;;;;5116232;28;20170;-75
2022/03/25 03:43:19;;;;;;;24.53;15.60;;;;;;;;;;5081049;28;20273;-75
2022/03/25 03:45:45;;;;;;;25.03;15.73;;;;;;;;;;5081465;28;20731;-75
2022/03/25 03:48:11;;;;;;;25.97;15.97;;;;;;;;;;5098197;28;20177;-75
2022/03/25 03:50:38;;;;;;;27.17;16.60;;;;;;;;;;5097848;28;20178;-75
2022/03/25 03:53:04;;;;;;;26.43;16.10;;;;;;;;;;5097795;28;20187;-75
2022/03/25 03:55:30;;;;;;;25.67;17.13;;;;;;;;;;5080908;28;20272;-75
2022/03/25 03:57:56;;;;;;;27.30;16.87;;;;;;;;;;5115808;28;20229;-75
2022/03/25 04:00:24;;;;;;;28.13;16.63;;;;;;;;;;5080911;28;20198;-75
2022/03/25 04:02:51;;;;;;;26.13;15.93;;;;;;;;;;5080953;28;20599;-75
2022/03/25 04:05:17;;;;;;;24.33;15.73;;;;;;;;;;5097534;28;20264;-75
2022/03/25 04:07:46;;;;;;;28.77;16.33;;;;;;;;;;5081009;28;20181;-75
2022/03/25 04:10:13;;;;;;;24.97;15.43;;;;;;;;;;5080623;28;20266;-75
2022/03/25 04:12:39;;;;;;;24.40;15.40;;;;;;;;;;5097539;28;20174;-75
2022/03/25 04:15:08;;;;;;;22.40;15.13;;;;;;;;;;5097738;28;20198;-75
2022/03/25 04:17:34;;;;;;;25.00;16.13;;;;;;;;;;5096427;28;20643;-75
2022/03/25 04:20:00;;;;;;;26.50;15.47;;;;;;;;;;5097482;28;20195;-75
2022/03/25 04:22:26;;;;;;;26.07;15.67;;;;;;;;;;5080830;28;20234;-75
2022/03/25 04:24:55;;;;;;;26.57;16.07;;;;;;;;;;5097398;28;20727;-75
2022/03/25 04:27:21;;;;;;;27.17;15.93;;;;;;;;;;5115341;28;20224;-75
2022/03/25 04:29:47;;;;;;;26.17;16.13;;;;;;;;;;5115461;28;20672;-75
2022/03/25 04:32:13;;;;;;;24.70;15.13;;;;;;;;;;5097023;28;20174;-75
2022/03/25 04:34:39;;;;;;;23.97;15.90;;;;;;;;;;5097298;28;20183;-75
2022/03/25 04:37:05;;;;;;;27.10;15.87;;;;;;;;;;5080643;28;20189;-75
2022/03/25 04:39:31;;;;;;;25.20;15.80;;;;;;;;;;5080381;28;20209;-75
2022/03/25 04:41:57;;;;;;;27.43;16.27;;;;;;;;;;5097144;28;20296;-75
2022/03/25 04:44:23;;;;;;;25.70;15.97;;;;;;;;;;5080136;28;20274;-75
2022/03/25 04:46:49;;;;;;;24.43;15.93;;;;;;;;;;5080221;28;20323;-75
2022/03/25 04:49:15;;;;;;;27.07;16.17;;;;;;;;;;5079870;28;20198;-75
2022/03/25 04:51:41;;;;;;;26.17;16.00;;;;;;;;;;5080211;28;20186;-75
2022/03/25 04:54:08;;;;;;;25.47;15.77;;;;;;;;;;5096717;28;20193;-75
2022/03/25 04:56:36;;;;;;;28.90;15.60;;;;;;;;;;5080266;28;20186;-75
2022/03/25 04:59:02;;;;;;;25.57;16.27;;;;;;;;;;5114676;28;20675;-75
2022/03/25 05:01:28;;;;;;;27.70;16.10;;;;;;;;;;5096482;28;20261;-75
2022/03/25 05:03:54;;;;;;;27.53;15.87;;;;;;;;;;5079675;28;20181;-75
2022/03/25 05:06:20;;;;;;;28.57;16.70;;;;;;;;;;5080004;28;20173;-75
2022/03/25 05:08:46;;;;;;;26.63;16.27;;;;;;;;;;5079453;28;20718;-75
2022/03/25 05:11:12;;;;;;;25.00;16.47;;;;;;;;;;5079537;28;20214;-75
2022/03/25 05:13:38;;;;;;;26.13;16.00;;;;;;;;;;5096266;28;20181;-75
2022/03/25 05:16:04;;;;;;;29.60;17.40;;;;;;;;;;5079861;28;20251;-75
2022/03/25 05:18:30;;;;;;;29.70;17.63;;;;;;;;;;5079572;28;20215;-75
2022/03/25 05:20:56;;;;;;;26.57;16.70;;;;;;;;;;5096366;28;20177;-76
2022/03/25 05:23:23;;;;;;;25.73;15.87;;;;;;;;;;5096060;28;20256;-75
2022/03/25 05:25:49;;;;;;;28.67;17.00;;;;;;;;;;5079617;28;20182;-75
2022/03/25 05:28:16;;;;;;;29.70;16.43;;;;;;;;;;5079029;28;20670;-75
2022/03/25 05:30:43;;;;;;;26.33;15.27;;;;;;;;;;5095909;28;20171;-76
2022/03/25 05:33:09;;;;;;;26.90;16.30;;;;;;;;;;5096159;28;20639;-75
2022/03/25 05:35:35;;;;;;;28.80;16.97;;;;;;;;;;5079480;28;20639;-75
2022/03/25 05:38:01;;;;;;;29.17;17.43;;;;;;;;;;5095869;28;20544;-77
2022/03/25 05:40:27;;;;;;;30.07;17.80;;;;;;;;;;5096151;28;20182;-75
2022/03/25 05:42:54;;;;;;;28.90;17.33;;;;;;;;;;5095549;28;20164;-75
2022/03/25 05:45:21;;;;;;;28.97;17.53;;;;;;;;;;5079313;28;20177;-77
2022/03/25 05:47:47;;;;;;;27.20;17.07;;;;;;;;;;5096217;28;20175;-75
2022/03/25 05:50:14;;;;;;;29.30;17.43;;;;;;;;;;5113722;28;20675;-75
2022/03/25 05:52:40;;;;;;;28.50;17.47;;;;;;;;;;5095370;28;20201;-75
2022/03/25 05:55:06;;;;;;;30.80;17.97;;;;;;;;;;5095444;28;20173;-75
2022/03/25 05:57:33;;;;;;;27.90;17.13;;;;;;;;;;5095558;28;20217;-75
2022/03/25 05:59:59;;;;;;;29.70;17.47;;;;;;;;;;5095245;28;20211;-75
2022/03/25 06:02:28;;;;;;;27.73;16.87;;;;;;;;;;5095163;28;20200;-75
2022/03/25 06:04:55;;;;;;;26.80;16.53;;;;;;;;;;5095670;28;20268;-75
2022/03/25 06:07:22;;;;;;;27.73;17.43;;;;;;;;;;5078536;28;20204;-74
2022/03/25 06:09:48;;;;;;;27.33;15.97;;;;;;;;;;5113448;28;20189;-74
2022/03/25 06:12:14;;;;;;;26.67;16.67;;;;;;;;;;5095020;28;20178;-75
2022/03/25 06:14:40;;;;;;;24.10;16.13;;;;;;;;;;5095223;28;20232;-74
2022/03/25 06:17:06;;;;;;;25.17;15.17;;;;;;;;;;5095545;28;20183;-76
2022/03/25 06:19:33;;;;;;;24.73;15.33;;;;;;;;;;5078379;28;20300;-78
2022/03/25 06:22:00;;;;;;;24.80;15.57;;;;;;;;;;5113423;28;20169;-76
2022/03/25 06:24:26;;;;;;;25.20;16.07;;;;;;;;;;5095213;28;20173;-76
2022/03/25 06:26:52;;;;;;;27.93;16.47;;;;;;;;;;5095366;28;20614;-76
2022/03/25 06:29:19;;;;;;;26.93;16.70;;;;;;;;;;5094696;28;20222;-76
2022/03/25 06:31:46;;;;;;;26.47;16.53;;;;;;;;;;5113025;28;20183;-76
2022/03/25 06:34:12;;;;;;;25.03;16.40;;;;;;;;;;5095196;28;20185;-76
2022/03/25 06:36:38;;;;;;;29.60;17.60;;;;;;;;;;5095131;28;20181;-76
2022/03/25 06:39:04;;;;;;;26.50;16.53;;;;;;;;;;5113325;28;20275;-76
2022/03/25 06:41:30;;;;;;;28.63;17.93;;;;;;;;;;5077814;28;20182;-75
2022/03/25 06:43:57;;;;;;;29.30;17.47;;;;;;;;;;5095263;28;20178;-76
2022/03/25 06:46:23;;;;;;;29.57;17.30;;;;;;;;;;5094819;28;20210;-77
2022/03/25 06:48:49;;;;;;;28.33;17.10;;;;;;;;;;5095264;28;20202;-76
2022/03/25 06:51:15;;;;;;;31.00;16.13;;;;;;;;;;5078092;28;20216;-77
2022/03/25 06:53:42;;;;;;;19.23;13.03;;;;;;;;;;5095037;28;20204;-77
2022/03/25 06:56:08;;;;;;;21.60;12.53;;;;;;;;;;5078202;28;20189;-77
2022/03/25 06:58:36;;;;;;;23.27;15.03;;;;;;;;;;5112841;28;20214;-76
2022/03/25 07:01:02;;;;;;;25.90;15.60;;;;;;;;;;5078092;28;20202;-76
2022/03/25 07:03:28;;;;;;;29.33;18.63;;;;;;;;;;5112764;28;20164;-75
2022/03/25 07:05:54;;;;;;;29.63;18.57;;;;;;;;;;5077831;28;20228;-75
2022/03/25 07:08:23;;;;;;;31.30;18.00;;;;;;;;;;5112683;28;20188;-75
2022/03/25 07:10:50;;;;;;;29.07;19.03;;;;;;;;;;5094767;28;20183;-75
2022/03/25 07:13:16;;;;;;;31.47;18.83;;;;;;;;;;5112662;28;20272;-75
2022/03/25 07:15:42;;;;;;;31.47;18.63;;;;;;;;;;5094469;28;20176;-75
2022/03/25 07:18:08;;;;;;;31.30;19.77;;;;;;;;;;5094340;28;20200;-75
2022/03/25 07:20:34;;;;;;;33.47;19.87;;;;;;;;;;5077757;28;20172;-75
2022/03/25 07:23:01;;;;;;;31.63;19.27;;;;;;;;;;5094471;28;20196;-75
2022/03/25 07:25:29;;;;;;;33.07;19.87;;;;;;;;;;5094909;28;20172;-75
2022/03/25 07:27:55;;;;;;;34.13;19.70;;;;;;;;;;5112573;28;20660;-75
2022/03/25 07:30:21;;;;;;;32.07;20.47;;;;;;;;;;5112465;28;20264;-75
2022/03/25 07:32:48;;;;;;;36.93;21.87;;;;;;;;;;5094038;28;20524;-75
2022/03/25 07:35:14;;;;;;;35.37;21.13;;;;;;;;;;5112563;28;20164;-75
2022/03/25 07:37:41;;;;;;;32.80;20.43;;;;;;;;;;5112377;28;20527;-75
2022/03/25 07:40:09;;;;;;;34.40;20.63;;;;;;;;;;5094171;28;20191;-75
2022/03/25 07:42:35;;;;;;;34.97;21.40;;;;;;;;;;5094506;28;20228;-75
2022/03/25 07:45:01;;;;;;;37.53;21.60;;;;;;;;;;5077573;28;20202;-75
2022/03/25 07:47:27;;;;;;;34.73;21.63;;;;;;;;;;5077474;28;20190;-75
2022/03/25 07:49:53;;;;;;;35.03;21.87;;;;;;;;;;5094075;28;20285;-75
2022/03/25 07:52:19;;;;;;;33.43;21.40;;;;;;;;;;5093913;28;20221;-75
2022/03/25 07:54:46;;;;;;;34.73;21.90;;;;;;;;;;5098108;28;20175;-75
2022/03/25 07:57:12;;;;;;;37.00;22.00;;;;;;;;;;5116024;28;20224;-76
2022/03/25 07:59:38;;;;;;;36.87;21.93;;;;;;;;;;5097895;28;20284;-75
2022/03/25 08:02:05;;;;;;;36.80;21.33;;;;;;;;;;5097803;28;20176;-75
2022/03/25 08:04:31;;;;;;;36.90;22.47;;;;;;;;;;5098029;28;20178;-76
2022/03/25 08:06:57;;;;;;;35.07;22.03;;;;;;;;;;5098055;28;20168;-76
2022/03/25 08:09:23;;;;;;;36.27;22.03;;;;;;;;;;5097937;28;20198;-76
2022/03/25 08:11:49;;;;;;;33.30;20.97;;;;;;;;;;5097643;28;20176;-75
2022/03/25 08:14:16;;;;;;;35.67;21.97;;;;;;;;;;5097734;28;20184;-75
2022/03/25 08:16:45;;;;;;;34.53;21.50;;;;;;;;;;5080724;28;20176;-75
2022/03/25 08:19:11;;;;;;;34.90;21.83;;;;;;;;;;5081229;28;20221;-75
2022/03/25 08:21:37;;;;;;;34.73;21.87;;;;;;;;;;5097392;28;20168;-75
2022/03/25 08:29:33;;;;;;;37.23;22.10;;;;;;;;;;5121648;22;20266;-74
2022/03/25 08:31:59;;;;;;;39.53;22.00;;;;;;;;;;5080536;28;20174;-75
2022/03/25 08:34:25;;;;;;;37.43;22.43;;;;;;;;;;5080582;28;20178;-74
2022/03/25 08:36:51;;;;;;;36.27;22.70;;;;;;;;;;5097045;28;20166;-74
2022/03/25 08:39:18;;;;;;;36.67;22.77;;;;;;;;;;5077025;28;20305;-74
2022/03/25 08:41:44;;;;;;;36.27;23.20;;;;;;;;;;5076989;28;20185;-74
2022/03/25 08:44:10;;;;;;;37.67;23.40;;;;;;;;;;5094762;28;20168;-74
2022/03/25 08:46:37;;;;;;;33.30;21.73;;;;;;;;;;5093765;28;20204;-74
2022/03/25 08:49:03;;;;;;;34.80;22.27;;;;;;;;;;5093306;28;20203;-74
2022/03/25 08:51:29;;;;;;;38.37;24.40;;;;;;;;;;5093225;28;20645;-74
2022/03/25 08:53:56;;;;;;;37.77;23.33;;;;;;;;;;5093467;28;20186;-74
2022/03/25 08:56:24;;;;;;;37.07;23.13;;;;;;;;;;5094393;28;20267;-74
2022/03/25 08:58:50;;;;;;;38.00;22.93;;;;;;;;;;5094360;28;20200;-74
2022/03/25 09:01:16;;;;;;;36.57;22.80;;;;;;;;;;5093279;28;20173;-75
2022/03/25 09:03:43;;;;;;;38.93;24.20;;;;;;;;;;5075906;28;20180;-74
2022/03/25 09:06:10;;;;;;;34.77;22.57;;;;;;;;;;5076664;28;20249;-75
2022/03/25 09:08:36;;;;;;;39.17;23.50;;;;;;;;;;5076496;28;20181;-74
2022/03/25 09:11:03;;;;;;;39.77;24.43;;;;;;;;;;5076570;28;20191;-74
2022/03/25 09:13:29;;;;;;;38.87;24.13;;;;;;;;;;5092732;28;20184;-75
2022/03/25 09:15:55;;;;;;;37.33;23.30;;;;;;;;;;5094017;28;20220;-74
2022/03/25 09:18:21;;;;;;;37.47;23.30;;;;;;;;;;5076181;28;20209;-74
2022/03/25 09:20:47;;;;;;;36.70;24.20;;;;;;;;;;5076007;28;20242;-74
2022/03/25 09:26:03;;;;;;;36.27;23.40;;;;;;;;;;5094231;28;20164;-74
2022/03/25 09:28:29;;;;;;;35.80;23.40;;;;;;;;;;5075881;28;20183;-75
2022/03/25 09:30:56;;;;;;;34.30;23.17;;;;;;;;;;5075752;28;20181;-75
2022/03/25 09:33:22;;;;;;;35.10;23.73;;;;;;;;;;5075817;28;20184;-74
2022/03/25 09:35:48;;;;;;;34.03;23.33;;;;;;;;;;5092648;28;20183;-74
2022/03/25 09:38:14;;;;;;;37.53;22.80;;;;;;;;;;5092408;28;20286;-74
2022/03/25 09:40:43;;;;;;;40.90;23.83;;;;;;;;;;5093848;28;20181;-74
2022/03/25 09:43:11;;;;;;;33.23;21.23;;;;;;;;;;5092570;28;20169;-75
2022/03/25 09:45:37;;;;;;;34.37;22.40;;;;;;;;;;5093606;28;20171;-74
2022/03/25 09:48:04;;;;;;;34.50;22.03;;;;;;;;;;5092257;28;20548;-74
2022/03/25 09:50:33;;;;;;;32.47;21.73;;;;;;;;;;5093445;28;20283;-74
2022/03/25 09:52:59;;;;;;;33.13;21.83;;;;;;;;;;5075627;28;20183;-75
2022/03/25 09:55:25;;;;;;;39.57;22.33;;;;;;;;;;5092168;28;20178;-75
2022/03/25 09:57:52;;;;;;;33.70;21.23;;;;;;;;;;5075668;28;20180;-75
2022/03/25 10:00:19;;;;;;;30.93;21.13;;;;;;;;;;5075134;28;20196;-74
2022/03/25 10:02:46;;;;;;;31.60;21.17;;;;;;;;;;5093066;28;20161;-75
2022/03/25 10:05:22;;;;;;;32.43;21.77;;;;;;;;;;5091987;28;20546;-75
2022/03/25 10:07:52;;;;;;;29.00;20.37;;;;;;;;;;5093408;28;20159;-74
2022/03/25 10:10:22;;;;;;;32.13;20.10;;;;;;;;;;5075270;28;20199;-75
2022/03/25 10:12:49;;;;;;;32.03;20.73;;;;;;;;;;5093196;28;20691;-75
2022/03/25 10:15:15;;;;;;;30.30;20.20;;;;;;;;;;5074859;28;20176;-74
2022/03/25 10:18:01;;;;;;;31.13;20.30;;;;;;;;;;5091380;28;20245;-75
2022/03/25 10:20:27;;;;;;;29.00;20.53;;;;;;;;;;5092972;28;20697;-75
2022/03/25 10:23:04;;;;;;;29.27;19.83;;;;;;;;;;5091845;28;20564;-77
2022/03/25 10:25:34;;;;;;;29.03;19.40;;;;;;;;;;5091693;28;20235;-75
2022/03/25 10:28:00;;;;;;;31.97;20.67;;;;;;;;;;5091900;28;20169;-76
2022/03/25 10:30:40;;;;;;;32.97;19.37;;;;;;;;;;5074980;28;20223;-76
2022/03/25 10:33:13;;;;;;;30.63;19.37;;;;;;;;;;5074719;28;20203;-75
2022/03/25 10:35:52;;;;;;;31.00;20.93;;;;;;;;;;5091595;28;20168;-75
2022/03/25 10:38:18;;;;;;;29.93;20.07;;;;;;;;;;5091763;28;20202;-75
2022/03/25 10:40:54;;;;;;;28.13;19.63;;;;;;;;;;5091392;28;20234;-75
2022/03/25 10:43:20;;;;;;;28.43;19.07;;;;;;;;;;5070976;28;20181;-74
2022/03/25 10:45:46;;;;;;;29.97;19.20;;;;;;;;;;5071560;28;20169;-74
2022/03/25 10:48:14;;;;;;;28.43;19.27;;;;;;;;;;5054715;28;20226;-75
2022/03/25 10:50:55;;;;;;;29.03;19.10;;;;;;;;;;5072692;28;20197;-74
2022/03/25 10:53:26;;;;;;;27.47;18.57;;;;;;;;;;5070987;28;20208;-75
2022/03/25 10:55:54;;;;;;;28.77;19.37;;;;;;;;;;5054699;28;20250;-75
2022/03/25 10:58:20;;;;;;;28.50;18.90;;;;;;;;;;5071381;28;20682;-75
2022/03/25 11:00:46;;;;;;;26.23;18.80;;;;;;;;;;5070886;28;20193;-75
2022/03/25 11:03:16;;;;;;;28.83;18.53;;;;;;;;;;5054466;28;20181;-75
2022/03/25 11:05:43;;;;;;;28.50;18.97;;;;;;;;;;5054879;28;20594;-75
2022/03/25 11:08:09;;;;;;;27.60;18.57;;;;;;;;;;5054845;28;20181;-76
2022/03/25 11:10:35;;;;;;;27.63;17.67;;;;;;;;;;5054597;28;20207;-75
2022/03/25 11:13:02;;;;;;;27.43;18.70;;;;;;;;;;5071150;28;20180;-75
2022/03/25 11:15:30;;;;;;;29.00;18.37;;;;;;;;;;5054617;28;20205;-75
2022/03/25 11:17:56;;;;;;;23.40;16.93;;;;;;;;;;5054316;28;20655;-75
2022/03/25 11:20:24;;;;;;;25.33;16.83;;;;;;;;;;5054572;28;20216;-75
2022/03/25 11:22:55;;;;;;;28.37;18.10;;;;;;;;;;5054448;28;20200;-75
2022/03/25 11:25:22;;;;;;;24.73;17.37;;;;;;;;;;5070848;28;20619;-75
2022/03/25 11:27:50;;;;;;;27.30;17.37;;;;;;;;;;5072715;28;20181;-75
2022/03/25 11:30:16;;;;;;;29.60;17.93;;;;;;;;;;5057919;28;20221;-75
2022/03/25 11:32:58;;;;;;;29.53;18.80;;;;;;;;;;5074399;28;20635;-75
2022/03/25 11:35:24;;;;;;;25.80;17.53;;;;;;;;;;5075854;28;20173;-75
2022/03/25 11:38:09;;;;;;;27.00;17.70;;;;;;;;;;5075670;28;20184;-75
2022/03/25 11:40:35;;;;;;;26.73;17.63;;;;;;;;;;5074592;28;20215;-75
2022/03/25 11:43:12;;;;;;;28.53;17.97;;;;;;;;;;5057740;28;20199;-75
2022/03/25 11:45:38;;;;;;;26.70;18.73;;;;;;;;;;5075577;28;20150;-75
2022/03/25 11:48:04;;;;;;;29.40;19.27;;;;;;;;;;5074649;28;20177;-75
2022/03/25 11:50:30;;;;;;;28.50;18.93;;;;;;;;;;5074226;28;20197;-75
2022/03/25 11:52:56;;;;;;;25.67;18.13;;;;;;;;;;5075211;28;20180;-75
2022/03/25 11:55:23;;;;;;;25.13;17.90;;;;;;;;;;5057598;28;20173;-75
2022/03/25 11:57:49;;;;;;;28.13;19.10;;;;;;;;;;5074450;28;20177;-75
2022/03/25 12:00:25;;;;;;;28.17;19.03;;;;;;;;;;5057543;28;20193;-75
2022/03/25 12:03:04;;;;;;;26.53;18.07;;;;;;;;;;5073791;28;20206;-75
2022/03/25 12:05:32;;;;;;;26.90;17.90;;;;;;;;;;5073958;28;20658;-75
2022/03/25 12:08:28;;;;;;;30.40;18.20;;;;;;;;;;5073914;28;20173;-75
2022/03/25 12:10:54;;;;;;;26.00;17.87;;;;;;;;;;5066432;28;20272;-75
2022/03/25 12:13:21;;;;;;;26.63;18.23;;;;;;;;;;5074970;28;20169;-76
2022/03/25 12:15:52;;;;;;;28.57;18.97;;;;;;;;;;5074201;28;20660;-76
2022/03/25 12:18:36;;;;;;;29.90;18.83;;;;;;;;;;5074993;28;20224;-75
2022/03/25 12:21:03;;;;;;;28.60;19.40;;;;;;;;;;5073709;28;20172;-75
2022/03/25 12:23:29;;;;;;;26.40;18.03;;;;;;;;;;5057222;28;20177;-76
2022/03/25 12:25:55;;;;;;;26.47;18.63;;;;;;;;;;5057128;28;20604;-75
2022/03/25 12:28:25;;;;;;;25.67;18.13;;;;;;;;;;5057306;28;20273;-75
2022/03/25 12:30:55;;;;;;;25.70;17.33;;;;;;;;;;5057244;28;20189;-75
2022/03/25 12:33:21;;;;;;;25.53;18.20;;;;;;;;;;5073664;28;20177;-76
2022/03/25 12:35:47;;;;;;;25.47;17.47;;;;;;;;;;5057184;28;20205;-75
2022/03/25 12:38:22;;;;;;;25.07;17.67;;;;;;;;;;5073080;28;20200;-75
2022/03/25 12:40:49;;;;;;;26.20;17.93;;;;;;;;;;5074587;28;20188;-75
2022/03/25 12:43:15;;;;;;;26.17;17.33;;;;;;;;;;5073045;28;20199;-76
2022/03/25 12:45:51;;;;;;;26.13;17.47;;;;;;;;;;5073208;28;20184;-76
2022/03/25 12:48:19;;;;;;;24.67;16.37;;;;;;;;;;5073564;28;20177;-75
2022/03/25 12:50:46;;;;;;;23.93;17.07;;;;;;;;;;5056719;28;20205;-75
2022/03/25 12:53:13;;;;;;;25.87;17.43;;;;;;;;;;5072958;28;20177;-75
2022/03/25 12:55:40;;;;;;;22.93;16.60;;;;;;;;;;5074286;28;20539;-75
2022/03/25 12:58:07;;;;;;;28.77;17.67;;;;;;;;;;5056405;28;20578;-75
2022/03/25 13:00:38;;;;;;;25.97;18.77;;;;;;;;;;5072908;28;20399;-76
2022/03/25 13:03:04;;;;;;;26.80;18.27;;;;;;;;;;5073174;28;20181;-75
2022/03/25 13:05:31;;;;;;;26.17;17.47;;;;;;;;;;5056672;28;20170;-75
2022/03/25 13:07:57;;;;;;;28.23;17.80;;;;;;;;;;5072832;28;20177;-75
2022/03/25 13:10:24;;;;;;;25.27;17.67;;;;;;;;;;5072695;28;20201;-75
2022/03/25 13:12:52;;;;;;;26.13;17.77;;;;;;;;;;5072634;28;20176;-76
2022/03/25 13:15:18;;;;;;;25.00;17.37;;;;;;;;;;5072948;28;20181;-75
2022/03/25 13:17:48;;;;;;;27.43;18.03;;;;;;;;;;5072568;28;20184;-75
2022/03/25 13:20:15;;;;;;;25.30;17.07;;;;;;;;;;5056453;28;20628;-75
2022/03/25 13:23:10;;;;;;;25.67;17.60;;;;;;;;;;5072341;28;20713;-76
2022/03/25 13:25:36;;;;;;;24.90;16.70;;;;;;;;;;5064949;28;20554;-75
2022/03/25 13:28:04;;;;;;;24.77;17.10;;;;;;;;;;5072397;28;20169;-76
2022/03/25 13:30:31;;;;;;;24.02;16.35;;;;;;;;;;5072166;28;20205;-75
2022/03/25 13:32:58;;;;;;;25.93;17.33;;;;;;;;;;5073354;28;20173;-75
2022/03/25 13:35:30;;;;;;;22.05;16.55;;;;;;;;;;5072590;28;20267;-75
2022/03/25 13:38:05;;;;;;;24.80;17.80;;;;;;;;;;5072002;28;20222;-75
2022/03/25 13:40:50;;;;;;;26.20;17.33;;;;;;;;;;5072127;28;20253;-75
2022/03/25 13:43:20;;;;;;;23.47;16.33;;;;;;;;;;5071911;28;20181;-75
2022/03/25 13:46:00;;;;;;;26.05;16.02;;;;;;;;;;5072063;28;20177;-75
2022/03/25 13:48:35;;;;;;;24.52;16.38;;;;;;;;;;5071936;28;20643;-75
2022/03/25 13:51:01;;;;;;;23.60;16.80;;;;;;;;;;5073459;28;20164;-75
2022/03/25 13:53:37;;;;;;;22.23;15.50;;;;;;;;;;5055196;28;20177;-75
2022/03/25 13:56:11;;;;;;;20.43;15.33;;;;;;;;;;5072131;28;20634;-75
2022/03/25 13:58:37;;;;;;;20.60;14.57;;;;;;;;;;5071726;28;20204;-75
2022/03/25 14:01:03;;;;;;;19.83;14.07;;;;;;;;;;5055162;28;20185;-76
2022/03/25 14:03:30;;;;;;;19.50;13.32;;;;;;;;;;5071716;28;20187;-76
2022/03/25 14:06:08;;;;;;;22.45;14.00;;;;;;;;;;5072994;28;20233;-76
2022/03/25 14:08:34;;;;;;;21.27;13.05;;;;;;;;;;5073183;28;20168;-75
2022/03/25 14:11:01;;;;;;;22.10;13.68;;;;;;;;;;5072065;28;20230;-75
2022/03/25 14:13:27;;;;;;;17.83;13.10;;;;;;;;;;5072850;28;20184;-75
2022/03/25 14:15:53;;;;;;;18.65;12.20;;;;;;;;;;5055326;28;20184;-75
2022/03/25 14:18:20;;;;;;;18.60;11.53;;;;;;;;;;5072749;28;20197;-75
2022/03/25 14:20:48;;;;;;;17.10;11.30;;;;;;;;;;5071738;28;20293;-75
2022/03/25 14:23:19;;;;;;;17.30;11.07;;;;;;;;;;5071282;28;20180;-75
2022/03/25 14:25:45;;;;;;;17.53;11.10;;;;;;;;;;5071758;28;20157;-75
2022/03/25 14:28:14;;;;;;;21.47;11.90;;;;;;;;;;5071742;28;20263;-76